Time;durP1;ratioP1;P1;durP2;ratioP2;P2;SDS_P1;SDS_P2;PMS_P1;PMS_P2;Temp;Humidity;BMP_temperature;BMP_pressure;BME280_temperature;BME280_humidity;BME280_pressure;Samples;Min_cycle;Max_cycle;Signal;HPM_P1;HPM_P2
2024/01/27 00:01:50;;;;;;;;;;;;;;;10.38;100.00;101124.06;6246728;23;20016;-84
2024/01/27 00:04:17;;;;;;;;;;;;;;;10.37;100.00;101122.28;6246476;23;19998;-84
2024/01/27 00:06:45;;;;;;;;;;;;;;;10.32;100.00;101114.38;6246017;23;19957;-83
2024/01/27 00:09:21;;;;;;;;;;;;;;;10.32;100.00;101113.50;6247836;23;19919;-85
2024/01/27 00:11:49;;;;;;;;;;;;;;;10.31;100.00;101112.63;6247934;23;19915;-84
2024/01/27 00:14:16;;;;;;;;;;;;;;;10.31;100.00;101111.72;6242655;23;19924;-82
2024/01/27 00:16:45;;;;;;;;;;;;;;;10.34;100.00;101107.56;6241470;23;19919;-82
2024/01/27 00:19:17;;;;;;;;;;;;;;;10.35;100.00;101111.00;6245942;23;19994;-85
2024/01/27 00:21:48;;;;;;;;;;;;;;;10.34;100.00;101107.56;6246222;23;19915;-82
2024/01/27 00:24:15;;;;;;;;;;;;;;;10.34;100.00;101104.09;6246699;23;19916;-82
2024/01/27 00:26:45;;;;;;;;;;;;;;;10.32;100.00;101104.03;6246817;23;19920;-85
2024/01/27 00:29:13;;;;;;;;;;;;;;;10.34;100.00;101111.84;6246356;23;19919;-83
2024/01/27 00:31:47;;;;;;;;;;;;;;;10.35;100.00;101103.25;6246607;23;19942;-83
2024/01/27 00:34:16;;;;;;;;;;;;;;;10.39;100.00;101106.00;6245596;23;19915;-83
2024/01/27 00:36:48;;;;;;;;;;;;;;;10.43;100.00;101112.19;6245361;23;19922;-83
2024/01/27 00:39:16;;;;;;;;;;;;;;;10.44;100.00;101109.63;6246153;23;19943;-83
2024/01/27 00:41:44;;;;;;;;;;;;;;;10.42;100.00;101095.78;6246978;23;19958;-82
2024/01/27 00:44:14;;;;;;;;;;;;;;;10.43;100.00;101096.66;6248240;23;19915;-85
2024/01/27 00:46:42;;;;;;;;;;;;;;;10.44;100.00;101098.41;6248791;23;19922;-84
2024/01/27 00:49:10;;;;;;;;;;;;;;;10.45;100.00;101102.78;6251373;23;19915;-84
2024/01/27 00:51:40;;;;;;;;;;;;;;;10.39;100.00;101099.94;6250353;23;19919;-85
2024/01/27 00:54:08;;;;;;;;;;;;;;;10.35;100.00;101104.13;6254005;23;19973;-85
2024/01/27 00:56:38;;;;;;;;;;;;;;;10.37;100.00;101096.44;6256012;23;19919;-86
2024/01/27 00:59:06;;;;;;;;;;;;;;;10.39;100.00;101099.94;6255840;23;19915;-86
2024/01/27 01:01:34;;;;;;;;;;;;;;;10.43;100.00;101112.19;6258568;23;19963;-87
2024/01/27 01:04:02;;;;;;;;;;;;;;;10.41;100.00;101103.47;6263232;23;19922;-87
2024/01/27 01:06:35;;;;;;;;;;;;;;;10.42;100.00;101105.22;6266874;23;19915;-84
2024/01/27 01:09:05;;;;;;;;;;;;;;;10.38;100.00;101099.09;6266248;23;19916;-87
2024/01/27 01:11:33;;;;;;;;;;;;;;;10.37;100.00;101096.44;6258318;23;19938;-87
2024/01/27 01:14:01;;;;;;;;;;;;;;;10.38;100.00;101096.50;6247506;23;19920;-87
2024/01/27 01:16:34;;;;;;;;;;;;;;;10.39;100.00;101100.81;6245909;23;19927;-87
2024/01/27 01:19:04;;;;;;;;;;;;;;;10.40;100.00;101102.59;6247566;23;19947;-88
2024/01/27 01:21:32;;;;;;;;;;;;;;;10.41;100.00;101104.34;6248738;23;19986;-87
2024/01/27 01:24:00;;;;;;;;;;;;;;;10.44;100.00;101101.00;6247448;23;19917;-86
2024/01/27 01:26:30;;;;;;;;;;;;;;;10.40;100.00;101102.59;6247168;23;19963;-86
2024/01/27 01:29:06;;;;;;;;;;;;;;;10.40;100.00;101101.69;6246868;23;19925;-84
2024/01/27 01:31:34;;;;;;;;;;;;;;;10.41;100.00;101106.06;6246219;23;19994;-87
2024/01/27 01:34:02;;;;;;;;;;;;;;;10.44;100.00;101103.56;6247596;23;19994;-88
2024/01/27 01:36:30;;;;;;;;;;;;;;;10.45;100.00;101106.22;6247565;23;19938;-89
2024/01/27 01:41:40;;;;;;;;;;;;;;;10.41;100.00;101103.47;6252894;23;19919;-87
2024/01/27 01:44:09;;;;;;;;;;;;;;;10.42;100.00;101108.72;6252162;23;19926;-88
2024/01/27 01:46:39;;;;;;;;;;;;;;;10.42;100.00;101106.13;6253624;23;19934;-87
2024/01/27 01:49:10;;;;;;;;;;;;;;;10.41;100.00;101104.34;6262030;23;20378;-87
2024/01/27 01:51:38;;;;;;;;;;;;;;;10.37;100.00;101107.66;6262533;23;19920;-87
2024/01/27 01:54:07;;;;;;;;;;;;;;;10.38;100.00;101098.22;6258804;23;19922;-87
2024/01/27 01:56:35;;;;;;;;;;;;;;;10.41;100.00;101103.47;6247553;23;20343;-86
2024/01/27 01:59:13;;;;;;;;;;;;;;;10.39;100.00;101094.78;6250034;23;19915;-88
2024/01/27 02:01:41;;;;;;;;;;;;;;;10.41;100.00;101095.72;6248670;23;19921;-86
2024/01/27 02:04:09;;;;;;;;;;;;;;;10.40;100.00;101089.66;6249999;23;19919;-87
2024/01/27 02:06:37;;;;;;;;;;;;;;;10.41;100.00;101090.53;6248978;23;19926;-87
2024/01/27 02:09:12;;;;;;;;;;;;;;;10.42;100.00;101094.88;6249190;23;19966;-88
2024/01/27 02:11:40;;;;;;;;;;;;;;;10.40;100.00;101097.44;6250982;23;19969;-86
2024/01/27 02:14:10;;;;;;;;;;;;;;;10.41;100.00;101101.75;6246010;23;20002;-87
2024/01/27 02:16:39;;;;;;;;;;;;;;;10.42;100.00;101102.63;6244978;23;19923;-87
2024/01/27 02:19:09;;;;;;;;;;;;;;;10.42;100.00;101112.97;6248542;23;19923;-86
2024/01/27 02:21:37;;;;;;;;;;;;;;;10.42;100.00;101115.56;6249136;23;19923;-87
2024/01/27 02:24:10;;;;;;;;;;;;;;;10.41;100.00;101116.41;6248455;23;20331;-83
2024/01/27 02:26:39;;;;;;;;;;;;;;;10.41;100.00;101109.53;6248002;23;19922;-88
2024/01/27 02:29:07;;;;;;;;;;;;;;;10.42;100.00;101115.56;6248354;23;19945;-87
2024/01/27 02:31:35;;;;;;;;;;;;;;;10.40;100.00;101114.63;6247200;23;19919;-87
2024/01/27 02:34:03;;;;;;;;;;;;;;;10.37;100.00;101101.59;6248671;23;19919;-87
2024/01/27 02:36:31;;;;;;;;;;;;;;;10.39;100.00;101121.53;6245006;23;19919;-87
2024/01/27 02:38:59;;;;;;;;;;;;;;;10.41;100.00;101116.41;6245284;23;19923;-87
2024/01/27 02:41:29;;;;;;;;;;;;;;;10.41;100.00;101117.28;6245202;23;19922;-86
2024/01/27 02:44:07;;;;;;;;;;;;;;;10.41;100.00;101119.00;6245694;23;19969;-86
2024/01/27 02:46:35;;;;;;;;;;;;;;;10.43;100.00;101112.19;6246372;23;19916;-85
2024/01/27 02:49:03;;;;;;;;;;;;;;;10.41;100.00;101124.16;6244986;23;19915;-85
2024/01/27 02:51:31;;;;;;;;;;;;;;;10.42;100.00;101124.25;6246057;23;19978;-87
2024/01/27 02:54:06;;;;;;;;;;;;;;;10.44;100.00;101125.16;6246388;23;19969;-87
2024/01/27 02:56:35;;;;;;;;;;;;;;;10.45;100.00;101118.28;6246754;23;19915;-85
2024/01/27 02:59:03;;;;;;;;;;;;;;;10.47;100.00;101132.16;6246484;23;19919;-85
2024/01/27 03:01:31;;;;;;;;;;;;;;;10.46;100.00;101127.78;6246695;23;19923;-84
2024/01/27 03:06:44;;;;;;;;;;;;;;;10.49;100.00;101127.94;6246168;23;19983;-86
2024/01/27 03:09:12;;;;;;;;;;;;;;;10.49;100.00;101130.53;6248079;23;19927;-88
2024/01/27 03:11:49;;;;;;;;;;;;;;;10.50;100.00;101145.19;6248991;23;19915;-87
2024/01/27 03:34:58;;;;;;;;;;;;;;;10.53;100.00;101149.59;6218305;23;19976;-84
2024/01/27 03:37:26;;;;;;;;;;;;;;;10.50;100.00;101155.56;6217648;23;20003;-85
2024/01/27 03:39:54;;;;;;;;;;;;;;;10.50;100.00;101160.72;6218450;23;19920;-84
2024/01/27 03:42:26;;;;;;;;;;;;;;;10.50;100.00;101165.91;6216508;23;19998;-85
2024/01/27 03:44:54;;;;;;;;;;;;;;;10.52;100.00;101159.06;6217006;23;20419;-86
2024/01/27 03:47:22;;;;;;;;;;;;;;;10.53;100.00;101165.13;6218350;23;19998;-85
2024/01/27 03:49:50;;;;;;;;;;;;;;;10.56;100.00;101157.47;6214819;23;19919;-88
2024/01/27 03:52:20;;;;;;;;;;;;;;;10.55;100.00;101163.47;6214584;23;19924;-87
2024/01/27 03:54:50;;;;;;;;;;;;;;;10.49;100.00;101156.38;6215508;23;19916;-88
2024/01/27 03:57:18;;;;;;;;;;;;;;;10.47;100.00;101163.22;6217033;23;19916;-85
2024/01/27 03:59:47;;;;;;;;;;;;;;;10.47;100.00;101158.91;6216977;23;19943;-85
2024/01/27 04:02:15;;;;;;;;;;;;;;;10.42;100.00;101165.63;6212312;23;19923;-86
2024/01/27 04:04:43;;;;;;;;;;;;;;;10.42;100.00;101162.13;6216527;23;19962;-86
2024/01/27 04:07:13;;;;;;;;;;;;;;;10.43;100.00;101167.38;6216381;23;19916;-87
2024/01/27 04:09:44;;;;;;;;;;;;;;;10.45;100.00;101173.50;6189521;23;19923;-86
2024/01/27 04:12:13;;;;;;;;;;;;;;;10.48;100.00;101168.41;6216101;23;19991;-88
2024/01/27 04:14:44;;;;;;;;;;;;;;;10.49;100.00;101164.16;6209806;23;19942;-87
2024/01/27 04:17:26;;;;;;;;;;;;;;;10.50;100.00;101171.06;6211857;23;20292;-86
2024/01/27 04:19:58;;;;;;;;;;;;;;;10.51;100.00;101164.19;6216795;23;19920;-85
2024/01/27 04:22:27;;;;;;;;;;;;;;;10.54;100.00;101162.59;6212592;23;19919;-84
2024/01/27 04:25:08;;;;;;;;;;;;;;;10.54;100.00;101170.38;6216736;23;19991;-84
2024/01/27 04:27:39;;;;;;;;;;;;;;;10.56;100.00;101175.56;6216452;23;20359;-86
2024/01/27 04:30:08;;;;;;;;;;;;;;;10.55;100.00;101169.53;6215006;23;19950;-83
2024/01/27 04:32:42;;;;;;;;;;;;;;;10.59;100.00;101174.00;6215906;23;19920;-84
2024/01/27 04:35:11;;;;;;;;;;;;;;;10.62;100.00;101170.63;6215622;23;19916;-83
2024/01/27 04:37:41;;;;;;;;;;;;;;;10.63;100.00;101178.47;6215126;23;19926;-83
2024/01/27 04:40:23;;;;;;;;;;;;;;;10.65;100.00;101176.81;6215311;23;19974;-83
2024/01/27 04:42:53;;;;;;;;;;;;;;;10.67;100.00;101180.34;6215667;23;19994;-84
2024/01/27 04:45:24;;;;;;;;;;;;;;;10.72;100.00;101187.34;6221568;22;19951;-84
2024/01/27 04:47:53;;;;;;;;;;;;;;;10.72;100.00;101184.78;6215492;23;19920;-85
2024/01/27 05:42:19;;;;;;;;;;;;;;;10.96;100.00;101208.06;6215791;23;19919;-85
2024/01/27 05:44:48;;;;;;;;;;;;;;;10.96;100.00;101206.34;6214736;23;19974;-88
2024/01/27 05:47:16;;;;;;;;;;;;;;;10.99;100.00;101203.88;6217076;23;19920;-86
2024/01/27 05:49:44;;;;;;;;;;;;;;;11.01;100.00;101202.22;6215347;23;19928;-85
2024/01/27 05:52:25;;;;;;;;;;;;;;;11.00;100.00;101200.47;6216832;23;19965;-85
2024/01/27 05:54:53;;;;;;;;;;;;;;;11.00;100.00;101200.47;6217661;23;19916;-86
2024/01/27 05:57:23;;;;;;;;;;;;;;;11.00;100.00;101203.06;6216188;23;20010;-86
2024/01/27 05:59:51;;;;;;;;;;;;;;;11.00;100.00;101208.22;6215425;23;19920;-85
2024/01/27 06:02:25;;;;;;;;;;;;;;;10.99;100.00;101214.22;6215029;23;19936;-86
2024/01/27 06:04:53;;;;;;;;;;;;;;;10.99;100.00;101208.16;6216462;23;19920;-84
2024/01/27 06:07:21;;;;;;;;;;;;;;;10.98;100.00;101211.59;6216753;23;19939;-85
2024/01/27 06:09:49;;;;;;;;;;;;;;;10.99;100.00;101214.22;6214332;23;19954;-84
2024/01/27 06:12:27;;;;;;;;;;;;;;;;;;;;;
2024/01/27 06:14:58;;;;;;;;;;;;;;;11.01;100.00;101217.75;6211398;23;19920;-85
2024/01/27 06:17:26;;;;;;;;;;;;;;;11.03;100.00;101220.41;6211395;23;20371;-85
2024/01/27 06:19:54;;;;;;;;;;;;;;;11.05;100.00;101224.81;6216275;23;19960;-86
2024/01/27 06:22:32;;;;;;;;;;;;;;;11.07;100.00;101225.75;6215678;23;19923;-85
2024/01/27 06:25:01;;;;;;;;;;;;;;;11.11;100.00;101222.44;6217616;23;20328;-87
2024/01/27 06:27:29;;;;;;;;;;;;;;;11.10;100.00;101231.03;6219787;23;19916;-88
2024/01/27 07:05:40;;;;;;;;;;;;;;;11.16;100.00;101232.09;6259457;22;19977;-86
2024/01/27 07:08:08;;;;;;;;;;;;;;;11.16;100.00;101235.53;6188485;23;19924;-87
2024/01/27 07:10:36;;;;;;;;;;;;;;;11.18;100.00;101241.66;6188829;23;19940;-88
2024/01/27 07:13:06;;;;;;;;;;;;;;;11.22;100.00;101242.63;6185081;23;19935;-88
2024/01/27 07:18:10;;;;;;;;;;;;;;;11.28;100.00;101237.69;6216477;23;19916;-86
2024/01/27 07:20:39;;;;;;;;;;;;;;;11.28;100.00;101235.09;6218782;23;19916;-86
2024/01/27 07:23:08;;;;;;;;;;;;;;;11.30;100.00;101244.66;6217974;23;19920;-85
2024/01/27 07:25:47;;;;;;;;;;;;;;;11.32;100.00;101239.56;6218374;23;20344;-85
2024/01/27 07:28:18;;;;;;;;;;;;;;;11.33;100.00;101243.88;6218918;23;19954;-86
2024/01/27 07:30:46;;;;;;;;;;;;;;;11.34;100.00;101240.47;6218119;23;19915;-86
2024/01/27 07:33:24;;;;;;;;;;;;;;;11.34;100.00;101243.06;6218817;23;19999;-86
2024/01/27 07:35:54;;;;;;;;;;;;;;;11.35;100.00;101238.78;6218987;23;19919;-86
2024/01/27 07:38:22;;;;;;;;;;;;;;;11.34;100.00;101235.31;6218428;23;20007;-86
2024/01/27 07:40:54;;;;;;;;;;;;;;;11.33;100.00;101239.56;6218778;23;20276;-87
2024/01/27 07:43:25;;;;;;;;;;;;;;;11.32;100.00;101239.56;6219134;23;19931;-87
2024/01/27 07:45:54;;;;;;;;;;;;;;;11.31;100.00;101233.50;6218689;23;19966;-86
2024/01/27 07:48:22;;;;;;;;;;;;;;;11.31;100.00;101233.50;6218523;23;19916;-87
2024/01/27 13:21:16;;;;;;;;;;;;;;;11.30;100.00;100931.22;6254466;22;20363;-86
2024/01/27 13:23:44;;;;;;;;;;;;;;;11.33;100.00;100940.78;6248659;23;19915;-88
2024/01/27 14:32:10;;;;;;;;;;;;;;;11.29;100.00;101021.81;6217893;23;19935;-87
2024/01/27 15:54:39;;;;;;;;;;;;;;;13.32;100.00;101111.34;6248585;23;19985;-86
2024/01/27 15:57:07;;;;;;;;;;;;;;;13.35;100.00;101110.53;6246545;23;19919;-86
2024/01/27 16:59:41;;;;;;;;;;;;;;;13.79;100.00;101160.09;6243591;23;19962;-85
2024/01/27 17:02:11;;;;;;;;;;;;;;;13.81;100.00;101174.91;6246815;23;19916;-88
2024/01/27 17:20:17;;;;;;;;;;;;;;;13.92;100.00;101197.66;6244007;22;20340;-87
2024/01/27 17:43:28;;;;;;;;;;;;;;;14.04;100.00;101209.25;6245802;22;20397;-85
2024/01/27 18:14:35;;;;;;;;;;;;;;;14.28;100.00;101257.47;6208176;23;19931;-84
2024/01/27 18:17:03;;;;;;;;;;;;;;;14.29;100.00;101272.22;6209021;23;20267;-83
2024/01/27 18:19:31;;;;;;;;;;;;;;;14.35;100.00;101272.38;6209611;23;19951;-84
2024/01/27 18:22:03;;;;;;;;;;;;;;;14.38;100.00;101281.97;6213732;23;19943;-83
2024/01/27 18:24:34;;;;;;;;;;;;;;;14.39;100.00;101283.75;6213897;23;19990;-84
2024/01/27 18:27:03;;;;;;;;;;;;;;;14.44;100.00;101292.53;6211827;23;19923;-84
2024/01/27 18:29:32;;;;;;;;;;;;;;;14.49;100.00;101295.25;6213702;23;19931;-84
2024/01/27 18:32:01;;;;;;;;;;;;;;;14.45;100.00;101295.19;6213896;23;19954;-84
2024/01/27 18:34:38;;;;;;;;;;;;;;;14.51;100.00;101306.56;6214282;23;19966;-84
2024/01/27 18:37:06;;;;;;;;;;;;;;;14.54;100.00;101297.13;6214335;23;19920;-83
2024/01/27 18:39:34;;;;;;;;;;;;;;;14.56;100.00;101297.16;6215134;23;19923;-82
2024/01/27 18:42:03;;;;;;;;;;;;;;;14.57;100.00;101293.72;6214756;23;19920;-84
2024/01/27 18:44:39;;;;;;;;;;;;;;;14.58;100.00;101296.34;6213262;23;19923;-84
2024/01/27 18:47:08;;;;;;;;;;;;;;;14.66;100.00;101304.34;6215048;23;19919;-84
2024/01/27 18:49:36;;;;;;;;;;;;;;;14.70;100.00;101295.72;6214774;23;19916;-84
2024/01/27 18:52:04;;;;;;;;;;;;;;;14.79;100.00;101302.88;6214971;23;19923;-84
2024/01/27 18:54:32;;;;;;;;;;;;;;;14.82;100.00;101301.22;6214778;23;19962;-84
2024/01/27 18:57:03;;;;;;;;;;;;;;;14.89;100.00;101291.81;6215159;23;20339;-83
2024/01/27 18:59:31;;;;;;;;;;;;;;;14.99;100.00;101303.28;6214413;23;19923;-84
2024/01/27 19:02:02;;;;;;;;;;;;;;;15.12;100.00;101305.28;6213910;23;19958;-84
2024/01/27 19:04:30;;;;;;;;;;;;;;;15.27;100.00;101302.94;6213389;23;19990;-83
2024/01/27 19:07:03;;;;;;;;;;;;;;;15.54;100.00;101299.09;6214041;23;19965;-84
2024/01/27 19:09:31;;;;;;;;;;;;;;;15.59;100.00;101307.88;6213208;23;19931;-84
2024/01/27 19:11:59;;;;;;;;;;;;;;;15.64;100.00;101300.13;6213517;23;19915;-84
2024/01/27 19:14:27;;;;;;;;;;;;;;;15.72;100.00;101297.72;6207897;23;19931;-82
2024/01/27 19:16:56;;;;;;;;;;;;;;;15.80;100.00;101301.31;6209269;23;19920;-83
2024/01/27 19:19:28;;;;;;;;;;;;;;;15.87;100.00;101297.94;6213540;23;19916;-83
2024/01/27 19:21:56;;;;;;;;;;;;;;;15.92;100.00;101296.31;6214468;23;19947;-84
2024/01/27 19:24:25;;;;;;;;;;;;;;;15.95;100.00;101295.50;6214217;23;19922;-81
2024/01/27 19:26:53;;;;;;;;;;;;;;;15.96;100.00;101300.72;6214519;23;19939;-85
2024/01/27 19:29:22;;;;;;;;;;;;;;;15.99;100.00;101292.03;6215302;23;19920;-83
2024/01/27 19:31:54;;;;;;;;;;;;;;;16.03;100.00;101289.50;6215461;23;19935;-82
2024/01/27 19:34:22;;;;;;;;;;;;;;;16.05;100.00;101292.16;6213742;23;20343;-84
2024/01/27 19:36:52;;;;;;;;;;;;;;;16.09;100.00;101288.75;6215509;23;19923;-82
2024/01/27 19:39:20;;;;;;;;;;;;;;;16.16;100.00;101276.66;6215615;23;19943;-82
2024/01/27 19:41:54;;;;;;;;;;;;;;;16.23;100.00;101276.75;6216613;23;19999;-83
2024/01/27 19:44:22;;;;;;;;;;;;;;;16.25;100.00;101279.41;6214638;23;19920;-82
2024/01/27 19:46:51;;;;;;;;;;;;;;;16.22;100.00;101282.84;6216878;23;20419;-89
2024/01/27 19:49:19;;;;;;;;;;;;;;;16.26;100.00;101279.44;6216481;23;20020;-84
2024/01/27 19:51:47;;;;;;;;;;;;;;;16.35;100.00;101283.91;6220126;23;19916;-83
2024/01/27 19:54:25;;;;;;;;;;;;;;;16.45;100.00;101277.97;6222396;23;19915;-83
2024/01/27 19:56:53;;;;;;;;;;;;;;;16.49;100.00;101268.41;6219630;23;19916;-83
2024/01/27 19:59:21;;;;;;;;;;;;;;;16.52;100.00;101274.56;6220824;23;19935;-82
2024/01/27 20:01:49;;;;;;;;;;;;;;;16.47;100.00;101281.47;6220957;23;19943;-84
2024/01/27 20:04:20;;;;;;;;;;;;;;;16.50;100.00;101273.66;6224655;23;19982;-83
2024/01/27 20:06:49;;;;;;;;;;;;;;;16.51;100.00;101277.16;6225138;23;19920;-82
2024/01/27 20:09:18;;;;;;;;;;;;;;;16.57;100.00;101266.78;6224275;23;19935;-82
2024/01/27 20:11:48;;;;;;;;;;;;;;;16.67;100.00;101268.66;6224347;23;19940;-85
2024/01/27 20:14:26;;;;;;;;;;;;;;;16.76;100.00;101273.13;6189268;23;19920;-83
2024/01/27 20:16:54;;;;;;;;;;;;;;;16.78;100.00;101271.41;6188046;23;19967;-83
2024/01/27 20:19:22;;;;;;;;;;;;;;;16.81;100.00;101275.81;6188833;23;19951;-85
2024/01/27 20:21:51;;;;;;;;;;;;;;;16.90;100.00;101270.69;6196042;23;19926;-84
2024/01/27 20:24:30;;;;;;;;;;;;;;;16.98;100.00;101273.44;6210714;23;19900;-85
2024/01/27 20:27:04;;;;;;;;;;;;;;;17.01;100.00;101266.47;6202805;23;19916;-86
2024/01/27 20:29:32;;;;;;;;;;;;;;;17.03;100.00;101274.34;6187601;23;20251;-85
2024/01/27 20:32:09;;;;;;;;;;;;;;;17.05;100.00;101270.88;6185433;23;19922;-83
2024/01/27 20:34:37;;;;;;;;;;;;;;;17.01;100.00;101270.84;6185750;23;19916;-83
2024/01/27 20:37:05;;;;;;;;;;;;;;;16.92;100.00;101272.47;6187771;23;19916;-83
2024/01/27 20:39:33;;;;;;;;;;;;;;;16.92;100.00;101275.09;6187232;23;19990;-83
2024/01/27 20:42:07;;;;;;;;;;;;;;;16.92;100.00;101269.00;6187521;23;19943;-83
2024/01/27 20:44:36;;;;;;;;;;;;;;;16.91;100.00;101277.69;6186629;23;19917;-82
2024/01/27 20:47:04;;;;;;;;;;;;;;;16.89;100.00;101272.44;6186645;23;19931;-84
2024/01/27 20:49:32;;;;;;;;;;;;;;;16.88;100.00;101273.31;6186383;23;20002;-83
2024/01/27 20:52:02;;;;;;;;;;;;;;;16.91;100.00;101270.72;6186048;23;20003;-83
2024/01/27 20:54:38;;;;;;;;;;;;;;;16.92;100.00;101280.31;6185591;23;19991;-83
2024/01/27 20:57:09;;;;;;;;;;;;;;;16.78;100.00;101268.78;6186150;23;19920;-85
2024/01/27 20:59:37;;;;;;;;;;;;;;;16.79;100.00;101272.28;6186822;23;19995;-86
2024/01/27 21:02:16;;;;;;;;;;;;;;;16.78;100.00;101271.41;6185412;23;19935;-83
2024/01/27 21:04:45;;;;;;;;;;;;;;;16.80;100.00;101264.50;6186214;23;19947;-84
2024/01/27 21:07:15;;;;;;;;;;;;;;;16.84;100.00;101254.97;6184921;23;20340;-83
2024/01/27 21:09:46;;;;;;;;;;;;;;;16.85;100.00;101260.19;6186149;23;19916;-84
2024/01/27 21:12:21;;;;;;;;;;;;;;;16.86;100.00;101259.34;6186199;23;19916;-84
2024/01/27 21:14:50;;;;;;;;;;;;;;;16.88;100.00;101256.75;6181910;23;19920;-85
2024/01/27 21:17:18;;;;;;;;;;;;;;;16.90;100.00;101255.88;6184192;23;19920;-84
2024/01/27 21:20:04;;;;;;;;;;;;;;;16.94;100.00;101247.22;6186729;23;19956;-85
2024/01/27 21:22:32;;;;;;;;;;;;;;;16.99;100.00;101251.63;6187306;23;19990;-85
2024/01/27 21:25:00;;;;;;;;;;;;;;;17.02;100.00;101246.44;6185563;23;19916;-84
2024/01/27 21:27:30;;;;;;;;;;;;;;;17.06;100.00;101245.63;6182894;23;19967;-84
2024/01/27 21:30:01;;;;;;;;;;;;;;;17.09;100.00;101253.50;6185623;23;19916;-85
2024/01/27 21:32:30;;;;;;;;;;;;;;;17.10;100.00;101252.63;6183765;23;20392;-85
2024/01/27 21:34:59;;;;;;;;;;;;;;;17.10;100.00;101250.03;6184617;23;19923;-85
2024/01/27 21:37:28;;;;;;;;;;;;;;;17.10;100.00;101252.63;6184835;23;19935;-86
2024/01/27 21:40:07;;;;;;;;;;;;;;;17.05;100.00;101249.97;6185964;23;19999;-84
2024/01/27 21:42:37;;;;;;;;;;;;;;;17.02;100.00;101255.19;6189087;23;19920;-84
2024/01/27 21:45:06;;;;;;;;;;;;;;;16.99;100.00;101249.03;6214624;23;19943;-86
2024/01/27 21:47:38;;;;;;;;;;;;;;;16.95;100.00;101259.47;6215323;23;19916;-84
2024/01/27 21:50:06;;;;;;;;;;;;;;;16.99;100.00;101252.50;6215365;23;19958;-85
2024/01/27 21:52:35;;;;;;;;;;;;;;;17.02;100.00;101249.06;6214577;23;19919;-85
2024/01/27 21:55:03;;;;;;;;;;;;;;;17.01;100.00;101248.19;6215824;23;19919;-85
2024/01/27 21:57:31;;;;;;;;;;;;;;;16.95;100.00;101243.78;6215003;23;19936;-84
2024/01/27 22:00:11;;;;;;;;;;;;;;;16.97;100.00;101249.00;6215222;23;20000;-84
2024/01/27 22:02:39;;;;;;;;;;;;;;;16.99;100.00;101243.78;6215646;23;19915;-84
2024/01/27 22:05:07;;;;;;;;;;;;;;;17.01;100.00;101244.69;6215971;23;19982;-84
2024/01/27 22:07:35;;;;;;;;;;;;;;;17.04;100.00;101244.72;6215946;23;19931;-84
2024/01/27 22:10:05;;;;;;;;;;;;;;;17.07;100.00;101247.38;6216539;23;19978;-85
2024/01/27 22:12:33;;;;;;;;;;;;;;;17.08;100.00;101238.66;6211935;23;19916;-84
2024/01/27 22:15:05;;;;;;;;;;;;;;;17.11;100.00;101233.47;6210614;23;20002;-84
2024/01/27 22:17:33;;;;;;;;;;;;;;;17.11;100.00;101238.69;6209791;23;19971;-83
2024/01/27 22:20:11;;;;;;;;;;;;;;;17.12;100.00;101237.84;6214752;23;19947;-84
2024/01/27 22:22:40;;;;;;;;;;;;;;;17.12;100.00;101240.47;6215891;23;19922;-84
2024/01/27 22:25:10;;;;;;;;;;;;;;;17.15;100.00;101235.25;6215486;23;19922;-84
2024/01/27 22:27:43;;;;;;;;;;;;;;;17.17;100.00;101233.53;6214889;23;19916;-84
2024/01/27 22:30:16;;;;;;;;;;;;;;;17.18;100.00;101240.53;6216615;23;19990;-84
2024/01/27 22:32:44;;;;;;;;;;;;;;;17.15;100.00;101240.47;6216409;23;19923;-84
2024/01/27 22:35:12;;;;;;;;;;;;;;;17.15;100.00;101233.50;6215896;23;19915;-84
2024/01/27 22:37:40;;;;;;;;;;;;;;;17.19;100.00;101237.03;6216045;23;19923;-85
2024/01/27 22:40:11;;;;;;;;;;;;;;;17.19;100.00;101236.16;6215123;23;19931;-83
2024/01/27 22:42:40;;;;;;;;;;;;;;;17.19;100.00;101238.78;6215265;23;19923;-84
2024/01/27 22:45:08;;;;;;;;;;;;;;;17.18;100.00;101240.53;6214389;23;19927;-84
2024/01/27 22:47:54;;;;;;;;;;;;;;;17.19;100.00;101230.94;6215414;23;19923;-84
2024/01/27 22:50:22;;;;;;;;;;;;;;;17.21;100.00;101237.94;6215839;23;19927;-84
2024/01/27 22:52:50;;;;;;;;;;;;;;;17.19;100.00;101234.44;6216672;23;19968;-84
2024/01/27 22:55:20;;;;;;;;;;;;;;;17.18;100.00;101230.06;6216874;23;19935;-85
2024/01/27 22:58:02;;;;;;;;;;;;;;;17.16;100.00;101235.28;6217342;23;19916;-84
2024/01/27 23:00:33;;;;;;;;;;;;;;;17.13;100.00;101239.59;6216512;23;19963;-84
2024/01/27 23:03:10;;;;;;;;;;;;;;;17.11;100.00;101239.59;6216286;23;19923;-84
2024/01/27 23:05:38;;;;;;;;;;;;;;;17.12;100.00;101230.00;6216013;23;19919;-84
2024/01/27 23:08:06;;;;;;;;;;;;;;;17.17;100.00;101233.53;6213914;23;19967;-85
2024/01/27 23:10:36;;;;;;;;;;;;;;;17.18;100.00;101240.53;6214668;23;19959;-86
2024/01/27 23:13:07;;;;;;;;;;;;;;;17.17;100.00;101239.63;6211921;23;19974;-84
2024/01/27 23:15:38;;;;;;;;;;;;;;;17.17;100.00;101239.63;6212025;23;19919;-84
2024/01/27 23:18:09;;;;;;;;;;;;;;;17.19;100.00;101239.66;6212455;23;19920;-84
2024/01/27 23:20:37;;;;;;;;;;;;;;;17.14;100.00;101243.97;6214829;23;19982;-84
2024/01/27 23:23:05;;;;;;;;;;;;;;;17.12;100.00;101240.47;6215052;23;19916;-84
2024/01/27 23:25:33;;;;;;;;;;;;;;;17.09;100.00;101243.06;6214402;23;19943;-83
2024/01/27 23:28:02;;;;;;;;;;;;;;;17.07;100.00;101242.16;6216208;23;19974;-83
2024/01/27 23:30:31;;;;;;;;;;;;;;;17.02;100.00;101241.19;6217155;23;19965;-83
2024/01/27 23:32:59;;;;;;;;;;;;;;;17.02;100.00;101241.19;6218067;23;19916;-83
2024/01/27 23:35:30;;;;;;;;;;;;;;;16.99;100.00;101249.03;6215348;23;19923;-83
2024/01/27 23:37:58;;;;;;;;;;;;;;;16.95;100.00;101246.38;6217444;23;19919;-82
2024/01/27 23:40:26;;;;;;;;;;;;;;;16.98;100.00;101252.50;6216813;23;20010;-84
2024/01/27 23:42:55;;;;;;;;;;;;;;;16.98;100.00;101244.66;6214256;23;19954;-83
2024/01/27 23:45:22;;;;;;;;;;;;;;;16.98;100.00;101253.38;6217661;23;19963;-83
2024/01/27 23:47:52;;;;;;;;;;;;;;;16.95;100.00;101248.13;6216081;23;19920;-83
2024/01/27 23:50:31;;;;;;;;;;;;;;;16.98;100.00;101252.50;6215299;23;20232;-83
2024/01/27 23:53:08;;;;;;;;;;;;;;;16.93;100.00;101258.56;6215472;23;19971;-83
2024/01/27 23:55:40;;;;;;;;;;;;;;;16.94;100.00;101256.81;6214700;23;20303;-83
2024/01/27 23:58:11;;;;;;;;;;;;;;;16.94;100.00;101262.03;6216397;23;19927;-83
